Time;durP1;ratioP1;P1;durP2;ratioP2;P2;SDS_P1;SDS_P2;PMS_P1;PMS_P2;Temp;Humidity;BMP_temperature;BMP_pressure;BME280_temperature;BME280_humidity;BME280_pressure;Samples;Min_cycle;Max_cycle;Signal;HPM_P1;HPM_P2
2022/06/16 00:08:05;;;;;;;6.65;2.50;;;;;;;14.66;58.45;100302.81;30889817;28;97108;-72
2022/06/16 00:23:06;;;;;;;3.80;2.40;;;;;;;14.43;59.39;100295.78;30851697;28;97222;-75
2022/06/16 00:38:06;;;;;;;3.88;2.38;;;;;;;14.28;59.79;100284.31;30856366;28;96732;-71
2022/06/16 00:53:07;;;;;;;5.45;2.45;;;;;;;14.06;60.75;100270.91;30855459;28;97609;-67
2022/06/16 01:08:08;;;;;;;4.00;2.58;;;;;;;13.96;61.25;100265.88;30854473;28;96701;-73
2022/06/16 01:23:30;;;;;;;5.97;2.70;;;;;;;13.80;62.02;100261.56;30853242;28;96818;-68
2022/06/16 01:38:46;;;;;;;7.83;2.90;;;;;;;13.73;62.35;100260.69;30862155;28;96718;-73
2022/06/16 01:54:02;;;;;;;10.40;3.33;;;;;;;13.66;63.14;100255.25;30872141;28;96706;-72
2022/06/16 02:09:12;;;;;;;6.60;3.27;;;;;;;13.75;63.42;100247.97;30870639;28;97516;-75
2022/06/16 02:24:16;;;;;;;8.27;3.40;;;;;;;13.88;63.54;100248.06;30868119;28;96676;-70
2022/06/16 02:39:25;;;;;;;6.33;3.87;;;;;;;13.88;63.76;100247.25;30867934;28;96730;-60
2022/06/16 02:54:55;;;;;;;7.00;3.70;;;;;;;13.81;64.22;100252.53;30865876;28;97099;-60
2022/06/16 03:09:56;;;;;;;8.73;4.60;;;;;;;13.90;64.33;100237.19;30863554;28;97393;-73
2022/06/16 03:24:56;;;;;;;11.10;5.10;;;;;;;14.01;64.49;100241.19;30862195;28;97423;-69
2022/06/16 03:39:56;;;;;;;11.30;5.97;;;;;;;14.28;64.16;100230.72;30927073;28;96714;-75
2022/06/16 03:54:57;;;;;;;11.68;7.70;;;;;;;14.47;64.00;100234.56;30977004;28;97708;-68
2022/06/16 04:09:57;;;;;;;10.40;7.38;;;;;;;14.69;63.99;100221.97;30977012;28;97435;-75
2022/06/16 04:24:58;;;;;;;9.55;6.30;;;;;;;14.90;63.38;100210.34;30975439;28;96715;-71
2022/06/16 04:39:58;;;;;;;10.93;5.57;;;;;;;15.19;63.36;100206.56;30975829;28;96746;-74
2022/06/16 04:54:59;;;;;;;9.23;5.47;;;;;;;15.34;63.20;100186.81;30976620;28;97931;-67
2022/06/16 05:09:59;;;;;;;8.80;4.93;;;;;;;15.87;62.84;100180.75;31017845;28;97779;-74
2022/06/16 05:24:59;;;;;;;11.57;5.00;;;;;;;16.67;61.51;100167.22;30994159;28;99791;-75
2022/06/16 05:40:00;;;;;;;7.28;4.43;;;;;;;17.38;60.23;100170.06;30986216;28;97639;-64
2022/06/16 05:55:00;;;;;;;8.43;4.22;;;;;;;18.08;59.03;100158.41;30987148;28;96876;-68
2022/06/16 06:25:19;;;;;;;5.73;3.63;;;;;;;19.76;55.77;100166.19;30990116;28;96724;-71
2022/06/16 06:40:26;;;;;;;10.93;3.70;;;;;;;21.02;53.59;100153.38;30989055;28;97633;-75
2022/06/16 06:55:27;;;;;;;7.60;3.30;;;;;;;21.96;50.41;100132.31;30986667;28;96671;-60
2022/06/16 07:10:28;;;;;;;4.10;3.10;;;;;;;22.42;49.65;100154.72;30984334;28;97644;-73
2022/06/16 07:25:28;;;;;;;6.67;3.43;;;;;;;23.64;47.61;100148.25;30985843;28;96818;-73
2022/06/16 07:40:28;;;;;;;5.30;2.83;;;;;;;24.99;44.72;100150.78;30977283;28;97158;-71
2022/06/16 07:55:29;;;;;;;;;;;;;;;25.29;44.25;100137.53;30970455;28;97131;-66
2022/06/16 08:10:34;;;;;;;4.68;2.53;;;;;;;25.89;42.11;100117.91;30980316;28;96733;-72
2022/06/16 08:25:35;;;;;;;4.87;2.70;;;;;;;26.48;41.59;100124.66;30978529;28;96670;-71
2022/06/16 08:40:42;;;;;;;5.03;2.30;;;;;;;27.78;38.75;100136.53;30976922;28;97434;-59
2022/06/16 08:56:10;;;;;;;4.17;2.03;;;;;;;28.36;37.93;100133.81;30977142;28;97508;-71
2022/06/16 09:11:19;;;;;;;4.13;2.50;;;;;;;30.18;33.68;100132.84;30974489;28;96692;-72
2022/06/16 09:26:27;;;;;;;5.07;2.50;;;;;;;30.80;32.17;100134.41;30973642;28;96792;-72
2022/06/16 09:57:12;;;;;;;5.20;2.50;;;;;;;32.44;28.32;100137.06;30978279;28;97286;-74
2022/06/16 10:12:34;;;;;;;4.73;2.20;;;;;;;32.35;28.20;100123.25;30988368;28;96902;-63
2022/06/16 10:27:44;;;;;;;4.13;2.20;;;;;;;33.40;26.33;100127.03;30990693;28;96936;-77
2022/06/16 10:42:49;;;;;;;5.80;1.97;;;;;;;35.05;24.12;100112.13;31019365;28;96917;-66
2022/06/16 10:57:55;;;;;;;4.03;1.90;;;;;;;35.35;23.33;100129.47;30999165;28;97476;-72
2022/06/16 11:12:56;;;;;;;3.40;2.00;;;;;;;33.90;24.44;100139.50;30985909;28;97482;-76
2022/06/16 11:28:07;;;;;;;3.90;2.40;;;;;;;30.70;27.25;100121.69;30985071;28;97041;-71
2022/06/16 11:43:22;;;;;;;3.33;2.20;;;;;;;29.58;29.01;100123.44;30982375;28;96774;-70
2022/06/16 11:58:22;;;;;;;3.77;2.60;;;;;;;28.09;31.24;100130.81;30983095;28;97312;-81
2022/06/16 12:13:39;;;;;;;9.20;2.42;;;;;;;27.64;34.36;100189.19;30979310;28;97309;-73
2022/06/16 12:28:39;;;;;;;3.97;1.67;;;;;;;28.76;31.91;100206.81;30973852;28;97371;-79
2022/06/16 12:43:50;;;;;;;3.70;2.15;;;;;;;27.78;34.40;100188.53;30965172;28;97479;-69
2022/06/16 12:59:01;;;;;;;4.17;2.20;;;;;;;27.43;36.10;100155.66;30856795;28;96809;-65
2022/06/16 13:14:12;;;;;;;2.40;1.53;;;;;;;28.23;33.21;100120.81;30842433;28;97243;-80
2022/06/16 13:29:18;;;;;;;2.53;1.50;;;;;;;28.54;31.66;100120.44;31028302;28;97875;-68
2022/06/16 13:44:29;;;;;;;2.07;1.20;;;;;;;28.39;30.29;100118.72;31058926;28;96755;-62
2022/06/16 13:59:33;;;;;;;2.73;1.20;;;;;;;27.68;30.97;100089.00;31059200;28;96716;-68
2022/06/16 14:15:00;;;;;;;5.73;2.80;;;;;;;26.69;32.77;100109.81;31050847;28;96871;-62
2022/06/16 14:30:03;;;;;;;4.13;2.23;;;;;;;24.64;36.84;100110.59;30991672;28;96887;-67
2022/06/16 14:45:31;;;;;;;6.60;2.40;;;;;;;24.45;37.58;100132.00;30960403;28;97358;-73
2022/06/16 15:00:40;;;;;;;3.70;1.73;;;;;;;25.14;35.71;100138.31;30983177;28;96761;-61
2022/06/16 15:15:41;;;;;;;5.43;1.90;;;;;;;26.09;35.13;100147.13;30986061;28;98761;-61
2022/06/16 15:30:42;;;;;;;4.33;2.37;;;;;;;25.44;37.09;100167.56;30983833;28;97357;-62
2022/06/16 15:45:48;;;;;;;3.25;1.80;;;;;;;24.51;38.77;100141.84;30969586;28;97316;-61
2022/06/16 16:00:51;;;;;;;2.53;1.87;;;;;;;24.25;38.48;100143.56;30952931;28;97060;-68
2022/06/16 16:16:04;;;;;;;4.17;1.80;;;;;;;23.85;39.61;100159.31;30979593;28;96802;-61
2022/06/16 16:31:13;;;;;;;2.80;1.90;;;;;;;23.18;40.53;100182.31;30977200;28;97174;-63
2022/06/16 16:46:20;;;;;;;3.97;1.90;;;;;;;23.13;40.77;100196.69;30970517;28;98400;-61
2022/06/16 17:01:22;;;;;;;3.33;1.93;;;;;;;22.95;40.72;100206.75;30966627;28;97372;-62
2022/06/16 17:16:22;;;;;;;4.70;2.20;;;;;;;22.24;41.72;100191.06;30962429;28;97350;-66
2022/06/16 17:31:23;;;;;;;6.43;2.83;;;;;;;21.71;43.46;100214.06;30872370;28;97420;-61
2022/06/16 17:46:23;;;;;;;6.97;3.30;;;;;;;21.00;49.14;100281.97;30966271;28;96728;-60
2022/06/16 18:01:24;;;;;;;6.47;3.33;;;;;;;20.09;55.79;100256.00;30969606;28;102888;-63
2022/06/16 18:16:25;;;;;;;3.92;3.17;;;;;;;19.72;56.87;100269.59;30971645;28;97248;-68
2022/06/16 18:31:27;;;;;;;4.57;3.33;;;;;;;19.24;58.83;100263.13;30988213;28;96819;-61
2022/06/16 18:46:28;;;;;;;6.80;3.30;;;;;;;19.00;59.63;100278.34;30987137;28;97317;-60
2022/06/16 19:01:28;;;;;;;4.85;4.10;;;;;;;19.00;60.01;100299.94;30985558;28;96861;-61
2022/06/16 19:16:29;;;;;;;8.90;5.18;;;;;;;18.81;60.00;100324.19;31014437;28;97608;-74
2022/06/16 19:31:30;;;;;;;7.22;4.80;;;;;;;18.64;60.93;100345.50;31104333;28;97282;-59
2022/06/16 20:01:50;;;;;;;9.93;7.07;;;;;;;18.40;61.90;100380.31;31011287;28;96838;-64
2022/06/16 20:16:50;;;;;;;10.40;5.47;;;;;;;18.47;61.77;100414.53;30977404;28;97015;-70
2022/06/16 20:31:51;;;;;;;7.72;3.72;;;;;;;18.55;60.75;100420.47;30978277;28;97249;-73
2022/06/16 20:46:52;;;;;;;5.80;3.30;;;;;;;19.64;57.57;100440.16;30976273;28;97418;-70
2022/06/16 21:02:02;;;;;;;6.25;2.90;;;;;;;20.24;54.18;100450.31;30972006;28;97414;-74
2022/06/16 21:17:03;;;;;;;9.20;3.03;;;;;;;20.57;51.67;100470.66;30945638;28;97304;-64
2022/06/16 21:32:04;;;;;;;4.93;2.63;;;;;;;20.16;50.78;100485.78;30960816;28;97050;-70
2022/06/16 21:47:06;;;;;;;4.72;2.10;;;;;;;19.78;51.04;100482.22;30964348;28;97440;-75
2022/06/16 22:02:17;;;;;;;3.33;2.17;;;;;;;19.40;50.96;100502.13;30992890;28;96645;-75
2022/06/16 22:17:20;;;;;;;;;;;;;;;18.60;51.58;100507.00;30993538;28;96856;-75
2022/06/16 22:32:20;;;;;;;4.70;1.97;;;;;;;18.10;52.93;100501.41;30993387;28;97015;-65
2022/06/16 22:47:21;;;;;;;2.75;1.55;;;;;;;17.49;53.66;100511.41;30991011;28;96710;-72
2022/06/16 23:02:21;;;;;;;3.20;1.88;;;;;;;17.10;54.74;100521.16;30989456;28;96752;-74
2022/06/16 23:17:22;;;;;;;3.90;2.08;;;;;;;16.95;55.46;100561.72;30987838;28;97514;-72
2022/06/16 23:32:24;;;;;;;3.05;2.15;;;;;;;16.85;55.47;100580.91;30986794;28;96997;-74
2022/06/16 23:47:27;;;;;;;3.33;1.97;;;;;;;16.80;55.75;100587.91;30985532;28;96778;-73
